createdAt,value
2023-06-07T00:01:15.732Z,101813.59
2023-06-07T00:03:42.639Z,101811.92
2023-06-07T00:06:10.379Z,101810.45
2023-06-07T00:08:39.267Z,101813.04
2023-06-07T00:11:07.257Z,101813.97
2023-06-07T00:13:37.432Z,101815.59
2023-06-07T00:16:04.516Z,101814.07
2023-06-07T00:18:31.828Z,101813.89
2023-06-07T00:20:58.925Z,101813.19
2023-06-07T00:23:29.153Z,101812.15
2023-06-07T00:25:57.475Z,101814.10
2023-06-07T00:28:24.097Z,101813.16
2023-06-07T00:30:51.086Z,101815.91
2023-06-07T00:33:18.184Z,101817.83
2023-06-07T00:35:45.028Z,101817.01
2023-06-07T00:38:11.738Z,101819.92
2023-06-07T00:40:38.621Z,101820.09
2023-06-07T00:43:05.307Z,101818.79
2023-06-07T00:45:32.002Z,101818.11
2023-06-07T00:47:58.821Z,101811.54
2023-06-07T00:50:25.852Z,101808.05
2023-06-07T00:52:52.517Z,101806.58
2023-06-07T00:55:20.233Z,101804.52
2023-06-07T00:57:47.029Z,101801.48
2023-06-07T01:00:15.862Z,101798.55
2023-06-07T01:02:46.986Z,101798.80
2023-06-07T01:05:14.683Z,101795.20
2023-06-07T01:07:45.931Z,101797.19
2023-06-07T01:10:12.610Z,101794.30
2023-06-07T01:12:40.445Z,101793.69
2023-06-07T01:15:07.946Z,101790.18
2023-06-07T01:17:38.303Z,101787.64
2023-06-07T01:20:07.536Z,101789.21
2023-06-07T01:22:35.078Z,101786.88
2023-06-07T01:25:02.717Z,101790.96
2023-06-07T01:27:31.272Z,101792.93
2023-06-07T01:29:58.383Z,101794.47
2023-06-07T01:32:25.683Z,101795.27
2023-06-07T01:34:52.843Z,101799.27
2023-06-07T01:37:25.697Z,101795.25
2023-06-07T01:39:53.466Z,101794.91
2023-06-07T01:42:20.598Z,101796.66
2023-06-07T01:44:47.964Z,101795.22
2023-06-07T01:47:16.649Z,101798.73
2023-06-07T01:49:43.627Z,101794.99
2023-06-07T01:52:11.103Z,101797.95
2023-06-07T01:54:38.445Z,101797.58
2023-06-07T01:57:28.209Z,101797.05
2023-06-07T01:59:55.209Z,101798.14
2023-06-07T02:02:33.453Z,101798.70
2023-06-07T02:05:10.036Z,101798.23
2023-06-07T02:07:41.921Z,101800.41
2023-06-07T02:10:08.686Z,101797.66
2023-06-07T02:12:36.388Z,101795.77
2023-06-07T02:15:04.011Z,101794.17
2023-06-07T02:17:32.845Z,101792.45
2023-06-07T02:19:59.835Z,101795.58
2023-06-07T02:22:29.630Z,101793.27
2023-06-07T02:24:57.133Z,101790.88
2023-06-07T02:27:23.815Z,101789.08
2023-06-07T02:29:50.924Z,101789.61
2023-06-07T02:32:17.634Z,101793.89
2023-06-07T02:34:45.606Z,101798.70
2023-06-07T02:37:12.364Z,101797.95
2023-06-07T02:39:39.087Z,101794.44
2023-06-07T02:42:06.851Z,101791.27
2023-06-07T02:44:33.828Z,101791.02
2023-06-07T02:47:00.748Z,101790.85
2023-06-07T02:49:27.970Z,101791.77
2023-06-07T02:51:55.516Z,101794.46
2023-06-07T02:54:22.516Z,101793.19
2023-06-07T02:56:50.343Z,101795.42
2023-06-07T02:59:17.223Z,101794.84
2023-06-07T03:01:46.979Z,101791.85
2023-06-07T03:04:15.091Z,101793.39
2023-06-07T03:06:42.885Z,101793.04
2023-06-07T03:09:31.016Z,101793.72
2023-06-07T03:11:57.935Z,101792.58
2023-06-07T03:14:26.453Z,101791.90
2023-06-07T03:16:54.100Z,101793.09
2023-06-07T03:19:21.380Z,101791.66
2023-06-07T03:21:48.300Z,101789.32
2023-06-07T03:24:17.252Z,101790.39
2023-06-07T03:26:45.917Z,101797.73
2023-06-07T03:29:13.355Z,101792.60
2023-06-07T03:31:40.938Z,101789.56
2023-06-07T03:34:10.605Z,101791.77
2023-06-07T03:36:38.842Z,101793.75
2023-06-07T03:39:06.147Z,101795.61
2023-06-07T03:41:33.939Z,101796.33
2023-06-07T03:44:04.200Z,101800.66
2023-06-07T03:46:31.425Z,101802.05
2023-06-07T03:48:58.732Z,101802.92
2023-06-07T03:51:26.171Z,101805.95
2023-06-07T03:53:53.574Z,101806.98
2023-06-07T03:56:21.724Z,101807.81
2023-06-07T03:58:49.530Z,101807.54
2023-06-07T04:01:18.531Z,101812.58
2023-06-07T04:03:47.418Z,101811.93
2023-06-07T04:06:14.951Z,101816.92
2023-06-07T04:08:42.665Z,101816.73
2023-06-07T04:11:09.420Z,101819.45
2023-06-07T04:13:36.702Z,101819.95
2023-06-07T04:16:03.951Z,101824.18
2023-06-07T04:18:30.773Z,101826.57
2023-06-07T04:20:57.577Z,101830.26
2023-06-07T04:23:25.466Z,101829.93
2023-06-07T04:25:56.179Z,101829.48
2023-06-07T04:28:25.425Z,101828.66
2023-06-07T04:30:57.752Z,101825.95
2023-06-07T04:33:24.800Z,101827.42
2023-06-07T04:35:51.723Z,101830.60
2023-06-07T04:38:24.541Z,101829.75
2023-06-07T04:40:56.582Z,101826.75
2023-06-07T04:43:38.553Z,101826.31
2023-06-07T04:46:09.847Z,101827.27
2023-06-07T04:48:41.569Z,101823.41
2023-06-07T04:51:09.142Z,101818.91
2023-06-07T04:53:43.634Z,101818.98
2023-06-07T04:56:12.553Z,101821.26
2023-06-07T04:58:42.538Z,101819.09
2023-06-07T05:01:11.367Z,101817.35
2023-06-07T05:03:41.459Z,101818.80
2023-06-07T05:06:10.598Z,101818.45
2023-06-07T05:08:38.191Z,101819.14
2023-06-07T05:11:05.381Z,101820.36
2023-06-07T05:13:32.763Z,101820.30
2023-06-07T05:16:04.121Z,101823.15
2023-06-07T05:18:32.778Z,101826.30
2023-06-07T05:21:01.328Z,101828.49
2023-06-07T05:23:29.389Z,101826.17
2023-06-07T05:25:56.483Z,101830.26
2023-06-07T05:28:23.947Z,101825.17
2023-06-07T05:30:53.880Z,101831.04
2023-06-07T05:33:22.022Z,101830.67
2023-06-07T05:35:49.165Z,101829.12
2023-06-07T05:38:17.339Z,101823.84
2023-06-07T05:40:44.145Z,101819.67
2023-06-07T05:43:11.644Z,101822.48
2023-06-07T05:45:40.858Z,101826.56
2023-06-07T05:48:08.229Z,101825.14
2023-06-07T05:50:35.698Z,101826.14
2023-06-07T05:53:02.489Z,101823.09
2023-06-07T05:55:30.053Z,101824.23
2023-06-07T05:57:57.938Z,101823.09
2023-06-07T06:00:27.864Z,101823.41
2023-06-07T06:02:58.223Z,101818.91
2023-06-07T06:05:29.796Z,101815.75
2023-06-07T06:07:59.725Z,101816.10
2023-06-07T06:10:28.254Z,101818.09
2023-06-07T06:12:57.341Z,101812.39
2023-06-07T06:15:24.780Z,101811.90
2023-06-07T06:17:54.807Z,101810.77
2023-06-07T06:20:21.825Z,101807.42
2023-06-07T06:22:48.967Z,101808.28
2023-06-07T06:25:15.817Z,101803.78
2023-06-07T06:27:43.671Z,101803.52
2023-06-07T06:30:11.105Z,101799.42
2023-06-07T06:32:39.734Z,101795.21
2023-06-07T06:35:07.890Z,101795.55
2023-06-07T06:37:35.123Z,101790.39
2023-06-07T06:40:01.940Z,101791.33
2023-06-07T06:42:28.944Z,101792.34
2023-06-07T06:45:20.004Z,101790.94
2023-06-07T06:47:46.878Z,101790.69
2023-06-07T06:50:30.121Z,101788.02
2023-06-07T06:53:00.960Z,101786.27
2023-06-07T06:55:28.227Z,101782.83
2023-06-07T06:57:55.711Z,101782.30
2023-06-07T07:00:24.695Z,101782.05
2023-06-07T07:02:55.130Z,101783.64
2023-06-07T07:05:23.408Z,101780.13
2023-06-07T07:07:50.484Z,101781.89
2023-06-07T07:10:19.105Z,101784.22
2023-06-07T07:12:46.219Z,101784.16
2023-06-07T07:15:13.995Z,101782.65
2023-06-07T07:17:50.335Z,101787.96
2023-06-07T07:20:18.095Z,101789.78
2023-06-07T07:22:46.857Z,101783.10
2023-06-07T07:25:13.857Z,101786.36
2023-06-07T07:27:40.834Z,101786.98
2023-06-07T07:30:07.981Z,101785.45
2023-06-07T07:32:35.055Z,101785.86
2023-06-07T07:35:03.062Z,101787.27
2023-06-07T07:37:31.134Z,101784.45
2023-06-07T07:39:58.253Z,101782.43
2023-06-07T07:42:25.616Z,101783.11
2023-06-07T07:44:52.818Z,101786.90
2023-06-07T07:47:20.102Z,101786.17
2023-06-07T07:49:47.924Z,101789.35
2023-06-07T07:52:14.737Z,101792.70
2023-06-07T07:54:41.859Z,101791.02
2023-06-07T07:57:08.935Z,101794.06
2023-06-07T07:59:38.850Z,101794.30
2023-06-07T08:02:05.732Z,101796.77
2023-06-07T08:04:33.043Z,101792.61
2023-06-07T08:07:01.012Z,101793.79
2023-06-07T08:09:27.993Z,101791.11
2023-06-07T08:11:58.412Z,101789.35
2023-06-07T08:14:25.848Z,101790.23
2023-06-07T08:16:53.008Z,101790.80
2023-06-07T08:19:19.990Z,101789.69
2023-06-07T08:21:48.192Z,101792.10
2023-06-07T08:24:15.948Z,101789.08
2023-06-07T08:26:45.564Z,101794.63
2023-06-07T08:29:12.356Z,101793.41
2023-06-07T08:31:42.161Z,101790.86
2023-06-07T08:34:11.155Z,101790.15
2023-06-07T08:36:40.335Z,101791.73
2023-06-07T08:39:07.955Z,101789.55
2023-06-07T08:41:35.004Z,101791.61
2023-06-07T08:44:02.151Z,101790.48
2023-06-07T08:46:32.066Z,101787.73
2023-06-07T08:49:03.431Z,101791.94
2023-06-07T08:51:36.896Z,101788.66
2023-06-07T08:54:04.591Z,101787.58
2023-06-07T08:56:34.492Z,101789.05
2023-06-07T08:59:04.755Z,101789.95
2023-06-07T09:01:36.874Z,101789.44
2023-06-07T09:04:05.248Z,101787.18
2023-06-07T09:06:34.968Z,101785.45
2023-06-07T09:09:03.651Z,101783.66
2023-06-07T09:11:33.645Z,101786.85
2023-06-07T09:14:01.711Z,101789.34
2023-06-07T09:16:31.086Z,101789.64
2023-06-07T09:19:02.391Z,101791.20
2023-06-07T09:21:36.977Z,101786.02
2023-06-07T09:24:04.088Z,101788.65
2023-06-07T09:26:38.797Z,101790.70
2023-06-07T09:29:09.718Z,101787.08
2023-06-07T09:31:38.392Z,101788.35
2023-06-07T09:34:25.261Z,101788.02
2023-06-07T09:36:56.785Z,101790.86
2023-06-07T09:39:25.946Z,101785.63
2023-06-07T09:41:56.590Z,101784.31
2023-06-07T09:44:30.379Z,101784.22
2023-06-07T09:46:58.665Z,101783.87
2023-06-07T09:49:34.969Z,101782.56
2023-06-07T09:52:03.125Z,101785.75
2023-06-07T09:54:45.994Z,101785.45
2023-06-07T09:57:29.609Z,101786.20
2023-06-07T10:00:08.349Z,101787.56
2023-06-07T10:02:44.417Z,101789.62
2023-06-07T10:05:15.670Z,101789.61
2023-06-07T10:07:53.481Z,101790.32
2023-06-07T10:10:22.813Z,101787.22
2023-06-07T10:12:51.887Z,101785.89
2023-06-07T10:15:24.204Z,101790.75
2023-06-07T10:17:56.065Z,101786.84
2023-06-07T10:20:30.769Z,101785.09
2023-06-07T10:23:08.256Z,101787.09
2023-06-07T10:25:38.665Z,101782.27
2023-06-07T10:28:25.787Z,101780.36
2023-06-07T10:30:56.226Z,101776.90
2023-06-07T10:33:26.015Z,101773.16
2023-06-07T10:35:53.132Z,101772.85
2023-06-07T10:38:22.678Z,101770.68
2023-06-07T10:40:52.664Z,101769.59
2023-06-07T10:43:35.686Z,101764.39
2023-06-07T10:46:19.439Z,101758.96
2023-06-07T10:48:49.185Z,101760.48
2023-06-07T10:51:16.528Z,101759.85
2023-06-07T10:53:56.693Z,101762.56
2023-06-07T10:56:34.463Z,101761.54
2023-06-07T10:59:13.686Z,101760.67
2023-06-07T11:01:41.152Z,101759.72
2023-06-07T11:04:08.285Z,101752.41
2023-06-07T11:07:01.183Z,101752.79
2023-06-07T11:09:34.246Z,101749.94
2023-06-07T11:12:01.763Z,101749.46
2023-06-07T11:14:28.883Z,101745.27
2023-06-07T11:16:55.908Z,101744.41
2023-06-07T11:19:23.067Z,101738.81
2023-06-07T11:21:56.782Z,101740.76
2023-06-07T11:24:25.172Z,101740.65
2023-06-07T11:26:54.287Z,101737.98
2023-06-07T11:29:27.900Z,101736.83
2023-06-07T11:32:06.074Z,101740.17
2023-06-07T11:34:33.835Z,101736.51
2023-06-07T11:37:14.927Z,101731.85
2023-06-07T11:39:47.915Z,101727.18
2023-06-07T11:42:14.884Z,101729.96
2023-06-07T11:44:41.813Z,101733.48
2023-06-07T11:47:08.754Z,101726.86
2023-06-07T11:49:39.824Z,101723.95
2023-06-07T11:52:07.670Z,101725.73
2023-06-07T11:54:42.711Z,101725.23
2023-06-07T11:57:13.469Z,101726.80
2023-06-07T11:59:42.311Z,101723.73
2023-06-07T12:02:09.611Z,101724.06
2023-06-07T12:04:37.617Z,101725.68
2023-06-07T12:07:20.483Z,101724.50
2023-06-07T12:09:50.044Z,101724.39
2023-06-07T12:12:17.147Z,101726.39
2023-06-07T12:14:46.192Z,101726.39
2023-06-07T12:17:24.172Z,101721.25
2023-06-07T12:20:12.036Z,101719.45
2023-06-07T12:22:39.565Z,101715.34
2023-06-07T12:25:15.648Z,101714.52
2023-06-07T12:27:49.101Z,101711.18
2023-06-07T12:30:20.143Z,101708.23
2023-06-07T12:32:48.663Z,101707.30
2023-06-07T12:35:18.178Z,101706.01
2023-06-07T12:37:45.443Z,101701.13
2023-06-07T12:40:12.677Z,101700.17
2023-06-07T12:42:41.236Z,101699.20
2023-06-07T12:45:08.822Z,101697.95
2023-06-07T12:47:36.808Z,101697.77
2023-06-07T12:50:05.915Z,101695.89
2023-06-07T12:52:32.832Z,101693.88
2023-06-07T12:54:59.751Z,101694.39
2023-06-07T12:57:26.662Z,101695.79
2023-06-07T12:59:53.385Z,101690.45
2023-06-07T13:02:20.897Z,101689.84
2023-06-07T13:04:47.938Z,101686.75
2023-06-07T13:07:14.998Z,101687.02
2023-06-07T13:09:42.070Z,101686.05
2023-06-07T13:12:09.576Z,101685.64
2023-06-07T13:14:37.151Z,101680.77
2023-06-07T13:17:04.346Z,101683.76
2023-06-07T13:19:32.038Z,101684.31
2023-06-07T13:21:59.039Z,101685.84
2023-06-07T13:24:26.193Z,101683.80
2023-06-07T13:26:53.200Z,101682.68
2023-06-07T13:29:20.809Z,101681.28
2023-06-07T13:31:49.800Z,101678.02
2023-06-07T13:34:18.596Z,101674.67
2023-06-07T13:36:47.120Z,101671.56
2023-06-07T13:39:14.451Z,101666.71
2023-06-07T13:41:43.012Z,101660.65
2023-06-07T13:44:17.965Z,101662.49
2023-06-07T13:46:47.065Z,101664.27
2023-06-07T13:49:15.931Z,101665.58
2023-06-07T13:51:45.409Z,101662.92
2023-06-07T13:54:20.316Z,101658.45
2023-06-07T13:56:51.387Z,101657.15
2023-06-07T13:59:23.553Z,101651.20
2023-06-07T14:01:55.266Z,101648.52
2023-06-07T14:04:29.950Z,101648.15
2023-06-07T14:06:57.297Z,101650.23
2023-06-07T14:09:24.154Z,101647.08
2023-06-07T14:11:54.213Z,101642.92
2023-06-07T14:14:21.071Z,101642.69
2023-06-07T14:16:50.564Z,101644.34
2023-06-07T14:19:18.022Z,101639.59
2023-06-07T14:21:45.917Z,101640.91
2023-06-07T14:24:12.834Z,101645.27
2023-06-07T14:26:39.508Z,101644.37
2023-06-07T14:29:06.393Z,101643.23
2023-06-07T14:31:33.373Z,101641.04
2023-06-07T14:34:00.503Z,101641.48
2023-06-07T14:36:27.987Z,101641.80
2023-06-07T14:38:55.245Z,101644.58
2023-06-07T14:41:28.458Z,101644.92
2023-06-07T14:43:55.590Z,101644.73
2023-06-07T14:46:25.789Z,101641.11
2023-06-07T14:48:54.237Z,101640.58
2023-06-07T14:51:23.739Z,101639.78
2023-06-07T14:53:51.153Z,101639.86
2023-06-07T14:56:18.940Z,101639.25
2023-06-07T14:58:48.448Z,101639.68
2023-06-07T15:01:15.716Z,101638.16
2023-06-07T15:03:44.736Z,101633.88
2023-06-07T15:06:11.515Z,101628.35
2023-06-07T15:08:38.984Z,101627.86
2023-06-07T15:11:06.302Z,101624.14
2023-06-07T15:13:33.273Z,101622.13
2023-06-07T15:16:00.162Z,101622.63
2023-06-07T15:18:28.818Z,101628.58
2023-06-07T15:20:55.773Z,101630.27
2023-06-07T15:23:22.501Z,101626.56
2023-06-07T15:25:49.521Z,101625.55
2023-06-07T15:28:16.572Z,101627.01
2023-06-07T15:30:43.331Z,101625.74
2023-06-07T15:33:10.521Z,101626.38
2023-06-07T15:35:37.549Z,101624.79
2023-06-07T15:38:04.377Z,101626.98
2023-06-07T15:40:31.672Z,101630.84
2023-06-07T15:42:58.575Z,101629.26
2023-06-07T15:45:27.667Z,101630.20
2023-06-07T15:48:02.236Z,101635.81
2023-06-07T15:50:29.827Z,101635.20
2023-06-07T15:52:58.291Z,101633.36
2023-06-07T15:55:27.995Z,101633.29
2023-06-07T15:57:55.270Z,101632.12
2023-06-07T16:02:52.184Z,101626.86
2023-06-07T16:05:18.987Z,101631.70
2023-06-07T16:07:47.105Z,101631.40
2023-06-07T16:10:13.846Z,101630.49
2023-06-07T16:12:41.041Z,101630.37
2023-06-07T16:15:10.045Z,101629.12
2023-06-07T16:17:37.166Z,101627.69
2023-06-07T16:20:04.695Z,101629.98
2023-06-07T16:22:32.213Z,101625.75
2023-06-07T16:24:59.009Z,101623.30
2023-06-07T16:27:25.761Z,101618.32
2023-06-07T16:29:52.499Z,101616.89
2023-06-07T16:32:19.329Z,101616.13
2023-06-07T16:34:46.890Z,101613.36
2023-06-07T16:37:14.724Z,101608.73
2023-06-07T16:39:41.484Z,101605.86
2023-06-07T16:42:10.692Z,101604.21
2023-06-07T16:44:38.279Z,101602.52
2023-06-07T16:47:05.256Z,101605.53
2023-06-07T16:49:33.387Z,101605.41
2023-06-07T16:52:00.195Z,101604.34
2023-06-07T16:54:27.915Z,101603.86
2023-06-07T16:56:54.736Z,101606.60
2023-06-07T16:59:21.497Z,101609.33
2023-06-07T17:01:49.106Z,101613.80
2023-06-07T17:04:17.634Z,101613.58
2023-06-07T17:06:45.642Z,101612.73
2023-06-07T17:09:12.454Z,101612.77
2023-06-07T17:11:39.176Z,101612.58
2023-06-07T17:14:06.010Z,101613.08
2023-06-07T17:16:32.857Z,101611.91
2023-06-07T17:18:59.685Z,101609.42
2023-06-07T17:21:26.499Z,101605.75
2023-06-07T17:23:53.661Z,101603.90
2023-06-07T17:26:21.971Z,101601.39
2023-06-07T17:28:48.771Z,101599.42
2023-06-07T17:31:15.474Z,101601.08
2023-06-07T17:33:42.502Z,101600.91
2023-06-07T17:36:09.495Z,101601.59
2023-06-07T17:38:36.429Z,101599.08
2023-06-07T17:41:03.539Z,101597.35
2023-06-07T17:43:30.393Z,101596.42
2023-06-07T17:45:57.274Z,101600.95
2023-06-07T17:48:24.543Z,101603.00
2023-06-07T17:50:51.250Z,101604.96
2023-06-07T17:53:19.072Z,101604.70
2023-06-07T17:55:46.357Z,101608.92
2023-06-07T17:58:13.488Z,101613.80
2023-06-07T18:00:40.498Z,101618.23
2023-06-07T18:03:07.424Z,101621.54
2023-06-07T18:05:34.434Z,101624.65
2023-06-07T18:08:03.227Z,101622.88
2023-06-07T18:10:30.378Z,101624.72
2023-06-07T18:12:57.906Z,101626.34
2023-06-07T18:15:26.736Z,101628.85
2023-06-07T18:17:54.401Z,101630.73
2023-06-07T18:20:21.499Z,101630.92
2023-06-07T18:22:48.299Z,101631.27
2023-06-07T18:25:15.464Z,101636.08
2023-06-07T18:27:43.267Z,101639.87
2023-06-07T18:30:10.315Z,101642.76
2023-06-07T18:32:37.454Z,101644.73
2023-06-07T18:35:04.981Z,101644.44
2023-06-07T18:37:32.396Z,101643.58
2023-06-07T18:40:04.884Z,101646.02
2023-06-07T18:42:32.363Z,101650.20
2023-06-07T18:44:59.094Z,101649.85
2023-06-07T18:47:26.885Z,101650.27
2023-06-07T18:49:54.089Z,101649.96
2023-06-07T18:52:20.983Z,101654.64
2023-06-07T18:54:50.700Z,101659.30
2023-06-07T18:57:18.408Z,101664.40
2023-06-07T18:59:45.235Z,101673.69
2023-06-07T19:02:12.525Z,101674.34
2023-06-07T19:04:39.624Z,101675.73
2023-06-07T19:07:06.840Z,101678.30
2023-06-07T19:09:35.503Z,101673.78
2023-06-07T19:12:02.368Z,101672.88
2023-06-07T19:14:31.135Z,101667.85
2023-06-07T19:16:58.392Z,101662.77
2023-06-07T19:19:25.170Z,101661.20
2023-06-07T19:21:52.025Z,101656.36
2023-06-07T19:24:19.082Z,101658.33
2023-06-07T19:26:46.208Z,101659.59
2023-06-07T19:29:13.056Z,101654.89
2023-06-07T19:31:40.209Z,101656.17
2023-06-07T19:34:08.581Z,101655.03
2023-06-07T19:36:37.440Z,101651.88
2023-06-07T19:39:04.536Z,101658.58
2023-06-07T19:41:31.833Z,101657.47
2023-06-07T19:43:59.023Z,101654.46
2023-06-07T19:46:26.001Z,101655.80
2023-06-07T19:48:52.940Z,101657.13
2023-06-07T19:51:21.753Z,101654.88
2023-06-07T19:53:48.833Z,101658.01
2023-06-07T19:56:16.600Z,101654.05
2023-06-07T19:58:43.468Z,101654.63
2023-06-07T20:01:10.543Z,101650.02
2023-06-07T20:03:37.256Z,101651.89
2023-06-07T20:06:04.867Z,101650.21
2023-06-07T20:08:33.465Z,101649.94
2023-06-07T20:11:00.157Z,101644.45
2023-06-07T20:13:27.031Z,101647.28
2023-06-07T20:15:54.671Z,101645.99
2023-06-07T20:18:21.931Z,101646.44
2023-06-07T20:20:48.612Z,101643.61
2023-06-07T20:23:16.232Z,101646.02
2023-06-07T20:25:42.987Z,101649.17
2023-06-07T20:28:09.895Z,101645.56
2023-06-07T20:30:36.660Z,101643.27
2023-06-07T20:33:03.826Z,101640.61
2023-06-07T20:35:32.578Z,101644.52
2023-06-07T20:37:59.576Z,101640.08
2023-06-07T20:40:26.141Z,101637.80
2023-06-07T20:42:53.135Z,101637.10
2023-06-07T20:45:19.839Z,101641.05
2023-06-07T20:47:46.548Z,101640.05
2023-06-07T20:50:13.268Z,101643.89
2023-06-07T20:52:41.095Z,101642.59
2023-06-07T20:55:08.467Z,101641.21
2023-06-07T20:57:35.401Z,101642.03
2023-06-07T21:00:03.707Z,101642.10
2023-06-07T21:02:31.793Z,101642.51
2023-06-07T21:04:58.983Z,101640.10
2023-06-07T21:07:25.651Z,101639.98
2023-06-07T21:09:52.884Z,101640.70
2023-06-07T21:12:20.012Z,101638.23
2023-06-07T21:14:47.040Z,101634.89
2023-06-07T21:17:13.977Z,101632.11
2023-06-07T21:19:40.689Z,101630.95
2023-06-07T21:22:07.396Z,101629.32
2023-06-07T21:24:34.251Z,101629.76
2023-06-07T21:27:01.079Z,101630.73
2023-06-07T21:29:27.886Z,101629.17
2023-06-07T21:31:54.928Z,101625.55
2023-06-07T21:34:21.773Z,101628.53
2023-06-07T21:36:48.696Z,101629.98
2023-06-07T21:39:15.323Z,101627.73
2023-06-07T21:41:42.224Z,101626.41
2023-06-07T21:44:08.878Z,101627.67
2023-06-07T21:46:35.609Z,101627.66
2023-06-07T21:49:02.747Z,101630.55
2023-06-07T21:51:29.549Z,101627.85
2023-06-07T21:53:56.713Z,101626.38
2023-06-07T21:56:23.544Z,101622.05
2023-06-07T21:58:50.288Z,101623.64
2023-06-07T22:01:17.148Z,101622.98
2023-06-07T22:03:44.196Z,101620.05
2023-06-07T22:06:11.151Z,101623.02
2023-06-07T22:08:38.001Z,101624.40
2023-06-07T22:11:04.828Z,101618.88
2023-06-07T22:13:37.580Z,101615.09
2023-06-07T22:16:05.241Z,101613.36
2023-06-07T22:18:35.830Z,101612.96
2023-06-07T22:21:03.791Z,101610.11
2023-06-07T22:23:31.256Z,101609.50
2023-06-07T22:25:58.072Z,101608.60
2023-06-07T22:28:26.504Z,101607.39
2023-06-07T22:30:53.892Z,101604.16
2023-06-07T22:33:21.286Z,101601.94
2023-06-07T22:35:48.246Z,101600.40
2023-06-07T22:38:16.431Z,101601.91
2023-06-07T22:40:43.169Z,101598.04
2023-06-07T22:43:09.882Z,101597.42
2023-06-07T22:45:36.790Z,101601.93
2023-06-07T22:48:11.760Z,101602.61
2023-06-07T22:50:40.274Z,101604.04
2023-06-07T22:53:09.159Z,101605.66
2023-06-07T22:55:36.362Z,101596.85
2023-06-07T22:58:03.633Z,101598.13
2023-06-07T23:00:34.915Z,101598.17
2023-06-07T23:03:03.063Z,101596.86
2023-06-07T23:05:29.995Z,101595.36
2023-06-07T23:07:57.796Z,101593.53
2023-06-07T23:10:35.388Z,101590.49
2023-06-07T23:13:07.995Z,101588.59
2023-06-07T23:15:35.974Z,101586.02
2023-06-07T23:18:03.186Z,101590.16
2023-06-07T23:20:33.266Z,101590.20
2023-06-07T23:23:04.174Z,101592.49
2023-06-07T23:25:31.888Z,101591.98
2023-06-07T23:27:58.889Z,101587.49
2023-06-07T23:30:27.007Z,101583.00
2023-06-07T23:32:54.289Z,101581.44
2023-06-07T23:35:21.522Z,101580.92
2023-06-07T23:37:48.864Z,101581.42
2023-06-07T23:40:16.694Z,101580.59
2023-06-07T23:42:44.171Z,101580.62
2023-06-07T23:45:11.363Z,101577.81
2023-06-07T23:47:38.469Z,101577.77
2023-06-07T23:50:09.017Z,101579.10
2023-06-07T23:52:38.392Z,101573.25
2023-06-07T23:55:05.570Z,101568.34
2023-06-07T23:57:32.482Z,101567.45
2023-06-07T23:59:59.248Z,101569.18
